Time;durP1;ratioP1;P1;durP2;ratioP2;P2;SDS_P1;SDS_P2;PMS_P1;PMS_P2;Temp;Humidity;BMP_temperature;BMP_pressure;BME280_temperature;BME280_humidity;BME280_pressure;Samples;Min_cycle;Max_cycle;Signal;HPM_P1;HPM_P2
2022/11/06 00:00:11;;;;;;;;;;;;;;;21.28;28.90;97865.38;4882071;29;822;-78
2022/11/06 00:09:00;;;;;;;;;;;;;;;20.95;29.44;97872.34;4868721;29;863;-78
2022/11/06 00:11:26;;;;;;;;;;;;;;;21.25;29.11;97869.09;4867211;29;951;-78
2022/11/06 00:13:51;;;;;;;;;;;;;;;21.49;28.63;97871.72;4881909;29;922;-78
2022/11/06 00:16:17;;;;;;;;;;;;;;;21.26;29.12;97865.03;4904879;29;1068;-78
2022/11/06 00:18:42;;;;;;;;;;;;;;;21.24;28.93;97861.88;4947726;28;1911;-77
2022/11/06 00:21:08;;;;;;;;;;;;;;;21.06;29.27;97867.19;4960506;28;908;-78
2022/11/06 00:23:34;;;;;;;;;;;;;;;20.96;29.45;97862.63;4960616;28;807;-78
2022/11/06 00:25:59;;;;;;;;;;;;;;;21.11;29.27;97857.38;4979134;28;890;-77
2022/11/06 00:28:24;;;;;;;;;;;;;;;21.37;28.82;97863.97;5016547;28;767;-78
2022/11/06 00:30:50;;;;;;;;;;;;;;;21.44;29.05;97858.09;5016879;28;933;-78
2022/11/06 00:33:15;;;;;;;;;;;;;;;21.39;28.74;97855.81;5016908;28;1223;-78
2022/11/06 00:35:41;;;;;;;;;;;;;;;21.35;28.84;97867.25;5000826;28;1302;-77
2022/11/06 00:38:06;;;;;;;;;;;;;;;21.24;29.00;97861.88;5017648;28;1989;-78
2022/11/06 00:40:32;;;;;;;;;;;;;;;21.32;28.99;97863.28;5017012;28;1156;-78
2022/11/06 00:42:58;;;;;;;;;;;;;;;21.29;29.38;97878.28;5016677;28;755;-78
2022/11/06 00:45:24;;;;;;;;;;;;;;;21.84;28.10;97875.56;4995493;28;892;-77
2022/11/06 00:47:49;;;;;;;;;;;;;;;21.46;28.63;97876.25;4979610;28;1187;-78
2022/11/06 00:50:16;;;;;;;;;;;;;;;21.24;28.99;97873.19;4979677;28;778;-78
2022/11/06 00:52:42;;;;;;;;;;;;;;;21.16;29.32;97870.97;4979691;28;984;-78
2022/11/06 00:55:07;;;;;;;;;;;;;;;21.18;29.15;97868.50;4995696;28;866;-79
2022/11/06 00:57:33;;;;;;;;;;;;;;;21.13;29.15;97869.03;4979675;28;1922;-77
2022/11/06 00:59:58;;;;;;;;;;;;;;;20.80;29.79;97860.59;4979460;28;758;-78
2022/11/06 01:02:24;;;;;;;;;;;;;;;21.31;28.95;97867.34;4979200;28;909;-78
2022/11/06 01:04:49;;;;;;;;;;;;;;;21.59;28.66;97865.75;5011983;28;1091;-78
2022/11/06 01:07:15;;;;;;;;;;;;;;;21.31;28.71;97855.22;4995501;28;1255;-78
2022/11/06 01:09:40;;;;;;;;;;;;;;;21.22;29.13;97857.88;4979436;28;890;-78
2022/11/06 01:12:05;;;;;;;;;;;;;;;21.08;29.40;97861.88;4995323;28;954;-77
2022/11/06 01:14:31;;;;;;;;;;;;;;;21.13;29.29;97869.81;4962779;28;1235;-78
2022/11/06 01:16:56;;;;;;;;;;;;;;;21.09;29.12;97866.31;5011440;28;1910;-78
2022/11/06 01:19:22;;;;;;;;;;;;;;;21.16;29.28;97860.47;5014741;28;960;-78
2022/11/06 01:21:48;;;;;;;;;;;;;;;21.56;28.67;97860.19;5015144;28;955;-78
2022/11/06 01:24:15;;;;;;;;;;;;;;;21.33;28.62;97864.84;4998367;28;1128;-77
2022/11/06 01:26:40;;;;;;;;;;;;;;;21.03;29.25;97853.94;4982282;28;1249;-78
2022/11/06 01:29:07;;;;;;;;;;;;;;;21.00;29.33;97852.78;4998299;28;929;-78
2022/11/06 01:31:32;;;;;;;;;;;;;;;21.02;29.19;97855.97;4998385;28;807;-78
2022/11/06 01:33:58;;;;;;;;;;;;;;;20.98;29.58;97857.28;4998290;28;762;-78
2022/11/06 01:36:24;;;;;;;;;;;;;;;21.24;29.09;97856.19;4959901;28;1435;-78
2022/11/06 01:38:50;;;;;;;;;;;;;;;21.63;28.26;97854.31;4959479;28;1973;-78
2022/11/06 01:41:16;;;;;;;;;;;;;;;21.35;28.60;97849.44;4975894;28;874;-78
2022/11/06 01:43:45;;;;;;;;;;;;;;;21.31;28.77;97856.03;4921279;29;1117;-78
2022/11/06 01:46:10;;;;;;;;;;;;;;;21.11;29.24;97858.16;4921461;29;1064;-78
2022/11/06 01:48:36;;;;;;;;;;;;;;;21.05;29.48;97854.28;4921423;29;869;-78
2022/11/06 01:51:01;;;;;;;;;;;;;;;21.19;29.16;97853.09;4918095;29;868;-78
2022/11/06 01:53:26;;;;;;;;;;;;;;;21.51;28.76;97863.59;4917922;29;909;-78
2022/11/06 01:55:55;;;;;;;;;;;;;;;21.65;28.31;97846.16;4917998;29;958;-78
2022/11/06 01:58:21;;;;;;;;;;;;;;;21.19;29.02;97850.28;4902274;29;1915;-78
2022/11/06 02:00:47;;;;;;;;;;;;;;;21.20;29.29;97847.00;4918529;29;1026;-78
2022/11/06 02:03:12;;;;;;;;;;;;;;;21.09;29.14;97849.34;4918163;29;854;-78
2022/11/06 02:05:38;;;;;;;;;;;;;;;20.99;29.18;97844.75;4902426;29;1229;-78
2022/11/06 02:08:04;;;;;;;;;;;;;;;21.14;29.22;97839.50;4947773;29;848;-78
2022/11/06 02:10:29;;;;;;;;;;;;;;;21.40;28.80;97840.41;4940379;29;963;-77
2022/11/06 02:13:07;;;;;;;;;;;;;;;21.47;28.99;97834.56;4940210;29;1208;-78
2022/11/06 02:15:41;;;;;;;;;;;;;;;21.13;29.37;97833.03;4988919;28;1262;-78
2022/11/06 02:18:17;;;;;;;;;;;;;;;21.01;29.37;97842.28;4994650;28;1910;-77
2022/11/06 02:20:53;;;;;;;;;;;;;;;21.06;29.24;97838.91;4959133;28;1136;-79
2022/11/06 02:23:30;;;;;;;;;;;;;;;21.30;29.16;97843.13;4959186;28;916;-78
2022/11/06 02:26:14;;;;;;;;;;;;;;;21.46;29.05;97838.66;4943402;28;1248;-78
2022/11/06 02:29:00;;;;;;;;;;;;;;;21.17;29.31;97845.06;5001816;28;858;-78
2022/11/06 02:31:26;;;;;;;;;;;;;;;21.20;29.19;97844.19;5001335;28;941;-78
2022/11/06 02:33:53;;;;;;;;;;;;;;;21.20;29.07;97847.00;5001852;28;1198;-78
2022/11/06 02:36:20;;;;;;;;;;;;;;;21.00;29.42;97854.84;5001796;28;779;-77
2022/11/06 02:38:47;;;;;;;;;;;;;;;21.00;29.58;97855.63;5001604;28;1984;-78
2022/11/06 02:41:17;;;;;;;;;;;;;;;21.43;28.80;97850.84;5001686;28;998;-77
2022/11/06 02:43:43;;;;;;;;;;;;;;;21.40;29.12;97848.91;5001346;28;802;-78
2022/11/06 02:46:11;;;;;;;;;;;;;;;21.13;29.31;97846.41;4978904;28;864;-78
2022/11/06 02:48:38;;;;;;;;;;;;;;;21.15;29.29;97853.22;4946884;28;1113;-78
2022/11/06 02:51:04;;;;;;;;;;;;;;;20.97;29.53;97864.19;4951145;28;969;-78
2022/11/06 02:53:29;;;;;;;;;;;;;;;21.24;29.40;97873.19;4981763;28;760;-78
2022/11/06 02:55:55;;;;;;;;;;;;;;;21.27;28.98;97863.78;4981657;28;805;-78
2022/11/06 02:58:37;;;;;;;;;;;;;;;21.63;28.57;97859.97;4981548;28;1979;-78
2022/11/06 03:01:20;;;;;;;;;;;;;;;21.13;29.19;97855.69;4981434;28;871;-77
2022/11/06 03:03:47;;;;;;;;;;;;;;;21.06;29.18;97868.00;4997918;28;1200;-77
2022/11/06 03:06:14;;;;;;;;;;;;;;;21.02;29.21;97870.09;4981510;28;1259;-77
2022/11/06 03:08:53;;;;;;;;;;;;;;;20.89;29.47;97857.94;4997912;28;1208;-78
2022/11/06 03:11:18;;;;;;;;;;;;;;;21.55;28.75;97864.25;4997764;28;803;-78
2022/11/06 03:13:51;;;;;;;;;;;;;;;21.51;28.57;97857.91;4997886;28;716;-78
2022/11/06 03:16:19;;;;;;;;;;;;;;;21.30;28.90;97864.97;5000223;28;1279;-78
2022/11/06 03:18:45;;;;;;;;;;;;;;;20.99;29.34;97873.06;5016728;28;1910;-77
2022/11/06 03:21:22;;;;;;;;;;;;;;;21.03;29.28;97868.06;5016956;28;857;-77
2022/11/06 03:23:52;;;;;;;;;;;;;;;21.02;29.35;97870.09;5016985;28;948;-78
2022/11/06 03:26:26;;;;;;;;;;;;;;;21.11;28.99;97875.16;5000790;28;981;-78
2022/11/06 03:29:04;;;;;;;;;;;;;;;21.60;28.51;97866.53;4984490;28;1315;-77
2022/11/06 03:31:34;;;;;;;;;;;;;;;21.47;28.71;97868.53;5005967;28;942;-78
2022/11/06 03:34:10;;;;;;;;;;;;;;;21.62;28.35;97875.38;5020040;28;773;-77
2022/11/06 03:36:36;;;;;;;;;;;;;;;21.53;28.46;97878.84;5020110;28;1959;-78
2022/11/06 03:39:06;;;;;;;;;;;;;;;21.40;28.68;97880.03;5019907;28;770;-77
2022/11/06 03:41:41;;;;;;;;;;;;;;;21.22;28.92;97875.66;5020175;28;779;-78
2022/11/06 03:44:07;;;;;;;;;;;;;;;21.00;29.27;97874.63;5000127;28;884;-77
2022/11/06 03:46:36;;;;;;;;;;;;;;;20.99;29.44;97881.53;5000034;28;953;-78
2022/11/06 03:49:02;;;;;;;;;;;;;;;20.96;29.49;97874.72;4954104;29;933;-78
2022/11/06 03:51:39;;;;;;;;;;;;;;;21.33;29.05;97876.19;4923524;29;1141;-78
2022/11/06 03:54:12;;;;;;;;;;;;;;;21.44;29.00;97877.91;4938974;29;1277;-77
2022/11/06 03:56:39;;;;;;;;;;;;;;;21.19;29.34;97882.22;4923266;29;1981;-78
2022/11/06 03:59:04;;;;;;;;;;;;;;;21.24;28.94;97884.50;4923322;29;812;-78
2022/11/06 04:01:31;;;;;;;;;;;;;;;21.02;29.53;97880.63;4922937;29;857;-78
2022/11/06 04:04:15;;;;;;;;;;;;;;;21.25;28.98;97880.44;4923074;29;812;-77
2022/11/06 04:06:41;;;;;;;;;;;;;;;21.02;29.21;97889.13;4938697;29;815;-78
2022/11/06 04:14:35;;;;;;;;;;;;;;;21.04;29.40;97881.00;4924758;29;808;-78
2022/11/06 04:17:01;;;;;;;;;;;;;;;21.31;28.91;97878.66;4922499;29;1989;-76
2022/11/06 04:19:27;;;;;;;;;;;;;;;20.93;29.36;97881.25;4922681;29;1246;-78
2022/11/06 04:22:07;;;;;;;;;;;;;;;20.89;29.77;97888.25;4946874;28;1122;-77
2022/11/06 04:27:33;;;;;;;;;;;;;;;21.16;29.32;97883.09;5013484;28;828;-78
2022/11/06 04:30:17;;;;;;;;;;;;;;;21.32;29.07;97880.25;5018166;28;811;-78
2022/11/06 04:32:46;;;;;;;;;;;;;;;21.38;28.73;97874.03;5016826;28;1236;-77
2022/11/06 04:35:21;;;;;;;;;;;;;;;21.03;29.48;97885.03;5016785;28;830;-77
2022/11/06 04:38:22;;;;;;;;;;;;;;;21.14;29.31;97888.41;5017618;28;1980;-77
2022/11/06 04:41:02;;;;;;;;;;;;;;;21.14;29.45;97882.75;4967803;28;1176;-79
2022/11/06 04:43:47;;;;;;;;;;;;;;;21.35;29.34;97889.06;4957361;29;929;-78
2022/11/06 04:46:15;;;;;;;;;;;;;;;21.42;29.25;97881.19;4940361;29;1538;-78
2022/11/06 04:48:40;;;;;;;;;;;;;;;21.30;29.00;97888.41;4937805;29;911;-79
2022/11/06 04:51:06;;;;;;;;;;;;;;;21.33;29.14;97881.84;4906084;29;1120;-78
2022/11/06 04:53:32;;;;;;;;;;;;;;;21.14;29.40;97884.75;4922114;29;828;-78
2022/11/06 04:56:05;;;;;;;;;;;;;;;20.99;29.69;97890.81;4922061;29;937;-78
2022/11/06 04:58:30;;;;;;;;;;;;;;;20.93;29.82;97891.78;4937564;29;1919;-78
2022/11/06 05:00:56;;;;;;;;;;;;;;;21.43;28.97;97896.16;4933807;29;1558;-79
2022/11/06 05:03:21;;;;;;;;;;;;;;;21.47;28.95;97891.19;4918624;29;827;-78
2022/11/06 05:05:47;;;;;;;;;;;;;;;21.50;28.95;97895.94;4918664;29;847;-78
2022/11/06 05:08:13;;;;;;;;;;;;;;;21.14;29.39;97896.06;4918620;29;953;-79
2022/11/06 05:10:39;;;;;;;;;;;;;;;21.13;29.31;97900.16;4914054;29;1493;-78
2022/11/06 05:13:04;;;;;;;;;;;;;;;21.07;29.63;97900.69;4908488;29;1507;-79
2022/11/06 05:15:29;;;;;;;;;;;;;;;20.97;29.64;97898.94;4952837;28;1094;-79
2022/11/06 05:17:56;;;;;;;;;;;;;;;21.25;29.62;97911.56;4975196;28;1993;-79
2022/11/06 05:20:21;;;;;;;;;;;;;;;21.23;29.61;97905.53;4988808;28;1101;-78
2022/11/06 05:23:02;;;;;;;;;;;;;;;21.50;28.95;97912.91;4961304;28;1254;-78
2022/11/06 05:25:31;;;;;;;;;;;;;;;21.23;29.41;97911.19;4978130;28;767;-78
2022/11/06 05:27:57;;;;;;;;;;;;;;;20.95;29.81;97912.72;4976781;28;724;-79
2022/11/06 05:30:23;;;;;;;;;;;;;;;21.08;29.53;97921.28;4976813;28;883;-79
2022/11/06 05:32:48;;;;;;;;;;;;;;;21.00;29.70;97917.84;4971360;28;1504;-79
2022/11/06 05:35:14;;;;;;;;;;;;;;;21.31;29.36;97938.09;4997394;28;756;-78
2022/11/06 05:37:39;;;;;;;;;;;;;;;21.31;29.46;97929.59;4997032;28;1914;-80
2022/11/06 05:40:05;;;;;;;;;;;;;;;21.47;29.23;97933.66;4996482;28;760;-78
2022/11/06 05:42:30;;;;;;;;;;;;;;;21.21;29.42;97936.31;5012670;28;770;-79
2022/11/06 05:44:56;;;;;;;;;;;;;;;21.21;29.56;97935.53;4996279;28;1096;-79
2022/11/06 05:47:21;;;;;;;;;;;;;;;21.18;29.41;97931.53;4990606;28;1494;-79
2022/11/06 05:49:47;;;;;;;;;;;;;;;21.09;29.69;97934.22;4977791;28;779;-79
2022/11/06 05:52:12;;;;;;;;;;;;;;;21.44;29.19;97937.34;4976389;28;855;-79
2022/11/06 05:54:38;;;;;;;;;;;;;;;21.38;29.37;97934.28;4984306;28;1501;-78
2022/11/06 05:57:03;;;;;;;;;;;;;;;21.27;29.29;97945.84;4995834;28;1994;-79
2022/11/06 06:03:04;;;;;;;;;;;;;;;21.04;29.90;97954.56;4999188;28;1590;-79
2022/11/06 06:05:29;;;;;;;;;;;;;;;21.02;29.77;97957.81;4999940;28;764;-79
2022/11/06 06:07:55;;;;;;;;;;;;;;;21.57;29.06;97958.84;5000169;28;783;-79
2022/11/06 06:10:22;;;;;;;;;;;;;;;21.72;28.72;97953.56;4999658;28;752;-79
2022/11/06 06:12:50;;;;;;;;;;;;;;;21.18;29.94;97954.16;5000489;28;1291;-79
2022/11/06 06:15:16;;;;;;;;;;;;;;;20.96;29.98;97961.59;4981507;28;1496;-78
2022/11/06 06:17:41;;;;;;;;;;;;;;;21.13;29.90;97963.19;4999047;28;1906;-78
2022/11/06 06:20:07;;;;;;;;;;;;;;;21.07;30.13;97964.97;4998490;28;940;-79
2022/11/06 06:22:33;;;;;;;;;;;;;;;21.14;29.89;97970.47;4998651;28;1163;-79
2022/11/06 06:24:58;;;;;;;;;;;;;;;21.49;29.28;97973.63;4998381;28;1235;-78
2022/11/06 06:27:26;;;;;;;;;;;;;;;21.55;29.48;97967.00;4982547;28;875;-78
2022/11/06 06:29:52;;;;;;;;;;;;;;;21.12;29.88;97972.13;4997663;28;1511;-80
2022/11/06 06:32:17;;;;;;;;;;;;;;;21.17;30.00;97972.38;4997862;28;1476;-79
2022/11/06 06:34:42;;;;;;;;;;;;;;;21.03;30.21;97979.19;4998582;28;879;-79
2022/11/06 06:37:08;;;;;;;;;;;;;;;20.94;30.14;97975.41;4998378;28;1995;-78
2022/11/06 06:39:33;;;;;;;;;;;;;;;20.93;30.20;97976.63;4998233;28;708;-79
2022/11/06 06:41:59;;;;;;;;;;;;;;;20.99;30.87;97977.72;4998047;28;940;-79
2022/11/06 06:44:24;;;;;;;;;;;;;;;21.36;29.92;97975.59;4998098;28;742;-78
2022/11/06 06:46:50;;;;;;;;;;;;;;;21.50;29.63;97975.19;4999095;28;1499;-78
2022/11/06 06:49:15;;;;;;;;;;;;;;;21.31;29.58;97974.88;4999508;28;1609;-79
2022/11/06 06:51:40;;;;;;;;;;;;;;;21.12;29.75;97972.91;5000514;28;845;-79
2022/11/06 06:54:06;;;;;;;;;;;;;;;20.93;30.05;97988.72;4999318;28;748;-79
2022/11/06 06:56:31;;;;;;;;;;;;;;;21.28;29.39;97974.94;4999093;28;1295;-79
2022/11/06 06:58:57;;;;;;;;;;;;;;;21.20;30.03;97980.00;4998887;28;1973;-79
2022/11/06 07:01:32;;;;;;;;;;;;;;;21.35;29.76;97974.00;4998112;28;1523;-79
2022/11/06 07:03:57;;;;;;;;;;;;;;;21.08;30.09;97980.69;5000355;28;779;-79
2022/11/06 07:06:23;;;;;;;;;;;;;;;21.12;29.91;97984.25;5015136;28;724;-79
2022/11/06 07:08:49;;;;;;;;;;;;;;;20.93;30.25;97983.06;4982033;28;1201;-79
2022/11/06 07:11:14;;;;;;;;;;;;;;;20.96;30.08;97992.72;4998941;28;1178;-79
2022/11/06 07:13:55;;;;;;;;;;;;;;;20.98;29.99;97988.19;5017090;28;1258;-79
2022/11/06 07:16:20;;;;;;;;;;;;;;;21.40;29.57;97981.94;5009612;28;1685;-79
2022/11/06 07:18:46;;;;;;;;;;;;;;;21.40;29.57;97988.44;4996978;28;1906;-78
2022/11/06 07:21:11;;;;;;;;;;;;;;;21.29;29.68;97996.34;4997502;28;716;-79
2022/11/06 07:23:37;;;;;;;;;;;;;;;21.16;29.79;98001.94;4965189;28;1108;-78
2022/11/06 07:26:02;;;;;;;;;;;;;;;21.12;29.93;97997.59;4997324;28;794;-79
2022/11/06 07:28:28;;;;;;;;;;;;;;;21.06;30.04;98000.16;4997417;28;845;-79
2022/11/06 07:31:00;;;;;;;;;;;;;;;21.18;29.71;97988.13;4997301;28;830;-79
2022/11/06 07:33:25;;;;;;;;;;;;;;;21.32;29.91;97999.13;4995289;28;1536;-79
2022/11/06 07:35:51;;;;;;;;;;;;;;;21.59;29.14;98000.84;4997103;28;767;-79
2022/11/06 07:38:16;;;;;;;;;;;;;;;21.04;30.08;98008.31;4997051;28;1898;-79
2022/11/06 07:40:42;;;;;;;;;;;;;;;21.14;30.07;98015.72;4980803;28;792;-79
2022/11/06 07:43:08;;;;;;;;;;;;;;;21.04;30.13;98006.25;4997396;28;795;-79
2022/11/06 07:45:34;;;;;;;;;;;;;;;21.00;29.98;98010.41;4997020;28;963;-79
2022/11/06 07:47:59;;;;;;;;;;;;;;;21.01;29.95;98006.34;5006095;28;1358;-79
2022/11/06 07:50:25;;;;;;;;;;;;;;;21.23;30.04;98013.06;5013776;28;1013;-78
2022/11/06 07:52:50;;;;;;;;;;;;;;;21.29;29.84;98011.28;5014223;28;767;-79
2022/11/06 07:55:16;;;;;;;;;;;;;;;21.41;29.46;98012.66;4997972;28;815;-79
2022/11/06 07:57:41;;;;;;;;;;;;;;;21.24;29.60;98026.00;4998802;28;1902;-79
2022/11/06 08:00:08;;;;;;;;;;;;;;;21.14;29.80;98024.22;4996538;28;907;-79
2022/11/06 08:02:39;;;;;;;;;;;;;;;21.07;29.97;98021.53;4995881;28;1476;-79
2022/11/06 08:05:04;;;;;;;;;;;;;;;21.05;30.21;98029.69;4980394;28;1161;-78
2022/11/06 08:07:30;;;;;;;;;;;;;;;21.22;30.09;98028.44;4996487;28;692;-80
2022/11/06 08:09:55;;;;;;;;;;;;;;;21.28;29.71;98023.84;4996523;28;884;-79
2022/11/06 08:12:20;;;;;;;;;;;;;;;21.40;29.75;98018.75;4963201;28;1412;-79
2022/11/06 08:14:46;;;;;;;;;;;;;;;21.22;29.81;98028.44;4979908;28;1436;-79
2022/11/06 08:17:11;;;;;;;;;;;;;;;21.05;30.31;98024.03;4980258;28;1910;-79
2022/11/06 08:19:37;;;;;;;;;;;;;;;21.08;30.53;98034.44;4980210;28;1090;-79
2022/11/06 08:22:02;;;;;;;;;;;;;;;21.06;30.03;98025.63;4980244;28;1135;-79
2022/11/06 08:24:28;;;;;;;;;;;;;;;21.12;30.11;98029.50;4995784;28;755;-79
2022/11/06 08:26:53;;;;;;;;;;;;;;;21.45;29.72;98035.19;4980050;28;822;-79
2022/11/06 08:29:18;;;;;;;;;;;;;;;21.55;29.48;98034.13;4979505;28;1500;-79
2022/11/06 08:31:44;;;;;;;;;;;;;;;20.90;30.30;98034.09;4992180;28;958;-78
2022/11/06 08:37:44;;;;;;;;;;;;;;;21.02;30.38;98042.66;4998197;28;1965;-79
2022/11/06 08:40:09;;;;;;;;;;;;;;;21.01;30.18;98031.81;4998439;28;826;-79
2022/11/06 08:42:35;;;;;;;;;;;;;;;20.85;30.63;98034.59;4996051;28;817;-79
2022/11/06 08:45:00;;;;;;;;;;;;;;;21.30;29.88;98035.56;4980142;28;885;-79
2022/11/06 08:47:26;;;;;;;;;;;;;;;21.43;29.67;98027.16;4975902;28;1547;-79
2022/11/06 08:49:51;;;;;;;;;;;;;;;21.26;29.71;98034.81;4983219;28;1507;-79
2022/11/06 08:52:17;;;;;;;;;;;;;;;21.16;30.26;98035.09;4996030;28;798;-79
2022/11/06 08:54:42;;;;;;;;;;;;;;;21.24;29.97;98037.31;4921969;29;1121;-79
2022/11/06 08:57:07;;;;;;;;;;;;;;;21.12;30.04;98038.00;4922120;29;1985;-79
2022/11/06 08:59:33;;;;;;;;;;;;;;;21.33;30.10;98040.31;4937804;29;791;-79
2022/11/06 09:01:59;;;;;;;;;;;;;;;21.54;29.41;98041.03;4936789;29;1514;-79
2022/11/06 09:04:25;;;;;;;;;;;;;;;21.13;30.22;98047.28;4922189;29;1321;-79
2022/11/06 09:06:50;;;;;;;;;;;;;;;21.18;30.09;98049.56;4937589;29;819;-79
2022/11/06 09:09:16;;;;;;;;;;;;;;;21.23;30.09;98047.00;4937557;29;792;-79
2022/11/06 09:11:41;;;;;;;;;;;;;;;20.89;30.35;98050.25;4937479;29;800;-79
2022/11/06 09:14:07;;;;;;;;;;;;;;;21.07;30.42;98047.00;4935997;29;1661;-79
2022/11/06 09:16:32;;;;;;;;;;;;;;;21.25;29.81;98038.91;4940235;29;1509;-79
2022/11/06 09:18:57;;;;;;;;;;;;;;;21.01;30.26;98057.25;4921643;29;1977;-79
2022/11/06 09:21:23;;;;;;;;;;;;;;;20.95;30.60;98048.50;4921723;29;1244;-78
2022/11/06 09:23:49;;;;;;;;;;;;;;;21.55;29.66;98040.59;4937879;29;847;-79
2022/11/06 09:26:14;;;;;;;;;;;;;;;21.50;29.65;98054.47;4967230;28;804;-79
2022/11/06 09:28:40;;;;;;;;;;;;;;;21.25;30.04;98055.88;4978406;28;720;-79
2022/11/06 09:31:05;;;;;;;;;;;;;;;20.98;30.45;98052.47;4990922;28;1504;-79
2022/11/06 09:33:31;;;;;;;;;;;;;;;21.12;30.24;98054.97;4995344;28;1400;-79
2022/11/06 09:39:31;;;;;;;;;;;;;;;21.29;29.98;98056.56;4997501;28;617;-79
2022/11/06 09:42:00;;;;;;;;;;;;;;;21.40;30.00;98061.19;4996468;28;811;-79
2022/11/06 09:44:38;;;;;;;;;;;;;;;21.11;30.23;98061.88;4996204;28;779;-79
2022/11/06 09:47:04;;;;;;;;;;;;;;;21.10;30.27;98065.16;4995724;28;1500;-79
2022/11/06 09:49:30;;;;;;;;;;;;;;;20.84;30.66;98052.81;4996220;28;1415;-79
2022/11/06 09:51:55;;;;;;;;;;;;;;;20.97;30.40;98050.88;4997477;28;791;-79
2022/11/06 09:54:31;;;;;;;;;;;;;;;20.89;30.37;98050.25;5003615;28;1587;-79
2022/11/06 09:56:59;;;;;;;;;;;;;;;20.84;30.85;98050.00;4996131;28;1914;-79
2022/11/06 09:59:24;;;;;;;;;;;;;;;21.14;30.62;98055.34;4994821;28;901;-79
2022/11/06 10:01:51;;;;;;;;;;;;;;;21.23;30.34;98052.69;4978876;28;1201;-79
2022/11/06 10:04:22;;;;;;;;;;;;;;;21.33;29.82;98057.31;4994779;28;1022;-79
2022/11/06 10:06:48;;;;;;;;;;;;;;;21.10;30.23;98053.84;4994903;28;864;-79
2022/11/06 10:09:16;;;;;;;;;;;;;;;20.96;30.39;98046.47;4977892;28;1737;-79
2022/11/06 10:11:54;;;;;;;;;;;;;;;20.88;30.33;98048.69;4994877;28;732;-79
2022/11/06 10:14:19;;;;;;;;;;;;;;;21.04;30.19;98056.41;4994030;28;1529;-78
2022/11/06 10:16:47;;;;;;;;;;;;;;;21.37;30.02;98051.56;4994648;28;1394;-78
2022/11/06 10:19:13;;;;;;;;;;;;;;;21.32;29.86;98050.06;4978638;28;1201;-78
2022/11/06 10:21:38;;;;;;;;;;;;;;;21.17;30.31;98048.78;4994778;28;819;-79
2022/11/06 10:24:07;;;;;;;;;;;;;;;21.27;29.72;98042.06;4978600;28;1253;-79
2022/11/06 10:26:34;;;;;;;;;;;;;;;21.02;30.26;98041.88;4978508;28;752;-79
2022/11/06 10:29:06;;;;;;;;;;;;;;;21.23;29.75;98041.34;4984231;28;1576;-79
2022/11/06 10:31:35;;;;;;;;;;;;;;;20.96;30.19;98033.13;4995442;28;873;-78
2022/11/06 10:34:30;;;;;;;;;;;;;;;21.49;29.71;98035.91;4996841;28;723;-79
2022/11/06 10:36:56;;;;;;;;;;;;;;;21.44;29.54;98030.78;4939837;29;1993;-79
2022/11/06 10:39:22;;;;;;;;;;;;;;;21.09;30.32;98036.06;4939876;29;808;-79
2022/11/06 10:41:49;;;;;;;;;;;;;;;21.18;29.89;98033.41;4955885;29;903;-79
2022/11/06 10:44:22;;;;;;;;;;;;;;;21.18;29.90;98027.72;4939141;29;1665;-79
2022/11/06 10:46:48;;;;;;;;;;;;;;;20.95;30.19;98033.56;4940198;29;1015;-79
2022/11/06 10:49:19;;;;;;;;;;;;;;;21.07;30.02;98027.19;4942671;29;745;-79
2022/11/06 10:51:45;;;;;;;;;;;;;;;21.35;29.78;98020.09;4943755;29;1617;-79
2022/11/06 10:54:16;;;;;;;;;;;;;;;21.41;29.46;98029.63;4959369;29;1054;-79
2022/11/06 10:57:00;;;;;;;;;;;;;;;21.14;30.16;98027.06;4959609;29;736;-79
2022/11/06 10:59:25;;;;;;;;;;;;;;;21.14;29.85;98018.56;4958131;29;1498;-79
2022/11/06 11:01:51;;;;;;;;;;;;;;;21.12;29.79;98026.69;4943001;29;937;-78
2022/11/06 11:04:16;;;;;;;;;;;;;;;21.09;30.06;98024.75;4927539;29;1244;-78
2022/11/06 11:06:42;;;;;;;;;;;;;;;21.35;29.81;98017.25;4926982;29;954;-79
2022/11/06 11:09:24;;;;;;;;;;;;;;;21.46;29.41;98031.16;4927126;29;1185;-79
2022/11/06 11:11:50;;;;;;;;;;;;;;;21.17;29.98;98026.16;4943242;29;827;-79
2022/11/06 11:14:21;;;;;;;;;;;;;;;20.86;30.36;98027.72;4992940;28;1522;-79
2022/11/06 11:16:46;;;;;;;;;;;;;;;21.10;29.96;98036.84;4981286;28;1100;-79
2022/11/06 11:19:20;;;;;;;;;;;;;;;21.00;30.03;98039.50;4965176;28;1910;-79
2022/11/06 11:21:52;;;;;;;;;;;;;;;21.14;29.63;98032.72;4981547;28;842;-78
2022/11/06 11:24:18;;;;;;;;;;;;;;;21.43;29.56;98026.34;4997710;28;835;-79
2022/11/06 11:26:47;;;;;;;;;;;;;;;21.49;29.45;98018.91;4961775;28;1237;-79
2022/11/06 11:29:22;;;;;;;;;;;;;;;21.26;29.59;98029.16;4961145;28;1590;-79
2022/11/06 11:31:51;;;;;;;;;;;;;;;21.17;29.77;98026.16;4961823;28;798;-79
2022/11/06 11:34:20;;;;;;;;;;;;;;;21.28;29.66;98025.88;4977770;28;801;-79
2022/11/06 11:36:56;;;;;;;;;;;;;;;21.20;29.73;98019.63;4977763;28;1179;-79
2022/11/06 11:39:24;;;;;;;;;;;;;;;21.54;29.52;98015.53;4977476;28;716;-79
2022/11/06 11:41:49;;;;;;;;;;;;;;;21.31;29.64;98014.50;4976779;28;1692;-79
2022/11/06 11:44:17;;;;;;;;;;;;;;;21.42;29.53;98030.44;4942218;29;833;-79
2022/11/06 11:46:46;;;;;;;;;;;;;;;21.22;29.86;98022.78;4958318;29;1213;-79
2022/11/06 11:49:28;;;;;;;;;;;;;;;21.27;29.57;98024.28;4958981;29;902;-79
2022/11/06 11:51:53;;;;;;;;;;;;;;;21.21;29.69;98026.88;4942111;29;868;-79
2022/11/06 11:54:20;;;;;;;;;;;;;;;20.97;29.85;98025.41;4958097;29;787;-78
2022/11/06 11:56:49;;;;;;;;;;;;;;;21.12;29.61;98023.06;4946099;28;1620;-79
2022/11/06 11:59:18;;;;;;;;;;;;;;;21.46;29.58;98031.16;4980075;28;1916;-79
2022/11/06 12:01:43;;;;;;;;;;;;;;;21.50;29.11;98031.81;4996398;28;809;-79
2022/11/06 12:04:13;;;;;;;;;;;;;;;21.59;29.21;98029.16;4996614;28;791;-79
2022/11/06 12:06:49;;;;;;;;;;;;;;;21.32;29.43;98037.94;4980434;28;831;-78
2022/11/06 12:09:14;;;;;;;;;;;;;;;21.36;29.46;98030.16;4964527;28;1132;-79
2022/11/06 12:11:41;;;;;;;;;;;;;;;21.00;30.08;98038.69;4966700;28;1478;-79
2022/11/06 12:14:16;;;;;;;;;;;;;;;20.73;30.47;98031.22;4979850;28;1504;-79
2022/11/06 12:16:41;;;;;;;;;;;;;;;21.17;30.20;98036.69;4996458;28;1261;-80
2022/11/06 12:19:07;;;;;;;;;;;;;;;21.49;29.24;98027.41;4998702;28;1977;-78
2022/11/06 12:21:33;;;;;;;;;;;;;;;21.19;29.76;98034.19;4997484;28;752;-79
2022/11/06 12:24:00;;;;;;;;;;;;;;;21.14;29.73;98038.38;4997173;28;842;-78
2022/11/06 12:26:45;;;;;;;;;;;;;;;21.06;29.90;98032.06;5013366;28;885;-79
2022/11/06 12:29:11;;;;;;;;;;;;;;;20.97;29.96;98033.91;4996236;28;1541;-80
2022/11/06 12:31:42;;;;;;;;;;;;;;;20.95;29.91;98037.19;4996368;28;1469;-79
2022/11/06 12:34:10;;;;;;;;;;;;;;;21.17;30.17;98034.63;4996005;28;1153;-79
2022/11/06 12:36:38;;;;;;;;;;;;;;;21.29;29.50;98030.31;4979828;28;803;-79
2022/11/06 12:39:05;;;;;;;;;;;;;;;21.62;28.97;98038.81;4980219;28;1978;-78
2022/11/06 12:41:34;;;;;;;;;;;;;;;21.29;29.54;98039.59;4980110;28;732;-79
2022/11/06 12:44:00;;;;;;;;;;;;;;;21.29;29.53;98039.59;4979951;28;879;-79
2022/11/06 12:46:25;;;;;;;;;;;;;;;21.23;29.53;98041.34;4979098;28;1497;-79
2022/11/06 12:49:09;;;;;;;;;;;;;;;21.47;29.31;98029.91;4995901;28;774;-79
2022/11/06 12:51:37;;;;;;;;;;;;;;;21.74;28.83;98044.53;4995806;28;772;-79
2022/11/06 12:54:32;;;;;;;;;;;;;;;21.23;29.35;98044.19;4995655;28;774;-79
2022/11/06 12:57:06;;;;;;;;;;;;;;;21.16;29.41;98035.88;4903018;29;1911;-79
2022/11/06 12:59:34;;;;;;;;;;;;;;;21.06;29.86;98037.72;4902559;29;1498;-79
2022/11/06 13:02:06;;;;;;;;;;;;;;;21.17;29.38;98037.47;4918662;29;1082;-79
2022/11/06 13:04:31;;;;;;;;;;;;;;;21.31;29.29;98034.31;4907839;29;785;-79
2022/11/06 13:07:05;;;;;;;;;;;;;;;21.50;29.38;98037.47;4922420;29;1273;-79
2022/11/06 13:09:36;;;;;;;;;;;;;;;21.16;29.38;98038.72;4931966;29;1514;-78
2022/11/06 13:12:02;;;;;;;;;;;;;;;21.23;29.68;98041.34;4916336;29;1494;-79
2022/11/06 13:14:31;;;;;;;;;;;;;;;21.14;29.81;98037.53;4937946;29;1112;-79
2022/11/06 13:17:01;;;;;;;;;;;;;;;21.11;29.64;98044.91;4937365;29;1906;-78
2022/11/06 13:19:47;;;;;;;;;;;;;;;21.11;29.67;98050.56;4921524;29;1078;-79
2022/11/06 13:22:34;;;;;;;;;;;;;;;21.55;28.90;98053.94;4906068;29;1282;-80
2022/11/06 13:24:59;;;;;;;;;;;;;;;21.30;29.46;98052.56;4913541;29;1403;-79
2022/11/06 13:27:25;;;;;;;;;;;;;;;21.32;29.25;98043.59;4937347;29;1066;-79
2022/11/06 13:29:50;;;;;;;;;;;;;;;21.29;29.16;98050.91;4937730;29;776;-79
2022/11/06 13:32:16;;;;;;;;;;;;;;;21.27;29.32;98047.72;4923893;28;869;-79